In Rescue
 
Open Full Screen Window  High Contrast Mode
Wind Gusting 00 knots
03
September 21, 2020 11:49 PM EDT
Weather Information
Wind Direction
  110 °
Wind Speed
  03 kt (3 mph)
Wind Gust
  00 kt (0 mph)
Altimeter
30.40 in
Visibility
10 SM
Temperature
05° C
41° F
Dewpoint
03° C
37° F
Humidity
87%
Sky Condition
Clear
VFR

METAR KFSO 220349Z AUTO 11003KT 10SM CLR 05/03 A3040 RMK AO2 T00490034

FAA Disclaimer: The data displayed is for advisory purposes only and is not to be used for flight planning or operations.